Time;durP1;ratioP1;P1;durP2;ratioP2;P2;SDS_P1;SDS_P2;PMS_P1;PMS_P2;Temp;Humidity;BMP_temperature;BMP_pressure;BME280_temperature;BME280_humidity;BME280_pressure;Samples;Min_cycle;Max_cycle;Signal;HPM_P1;HPM_P2
2023/05/21 00:01:19;;;;;;;5.32;3.10;;;;;;;;;;5072640;28;20044;-65
2023/05/21 00:03:45;;;;;;;6.47;3.33;;;;;;;;;;5070865;28;20035;-65
2023/05/21 00:06:12;;;;;;;9.05;3.30;;;;;;;;;;5071165;28;20051;-65
2023/05/21 00:08:38;;;;;;;6.13;3.30;;;;;;;;;;5076488;28;20567;-65
2023/05/21 00:11:05;;;;;;;7.22;3.58;;;;;;;;;;5093850;27;20070;-65
2023/05/21 00:13:31;;;;;;;6.20;3.30;;;;;;;;;;5055868;28;20105;-65
2023/05/21 00:15:57;;;;;;;7.65;3.58;;;;;;;;;;5075955;28;20059;-65
2023/05/21 00:18:25;;;;;;;9.52;3.70;;;;;;;;;;5088939;27;20060;-65
2023/05/21 00:20:51;;;;;;;7.88;3.92;;;;;;;;;;5073113;28;20082;-66
2023/05/21 00:23:18;;;;;;;7.10;3.75;;;;;;;;;;5075422;28;20051;-66
2023/05/21 00:25:45;;;;;;;5.28;3.22;;;;;;;;;;5092282;28;20409;-66
2023/05/21 00:28:11;;;;;;;7.03;3.88;;;;;;;;;;5094912;28;20047;-66
2023/05/21 00:30:38;;;;;;;6.80;3.80;;;;;;;;;;5093559;28;20043;-66
2023/05/21 00:33:04;;;;;;;7.60;3.47;;;;;;;;;;5093911;28;20074;-66
2023/05/21 00:35:31;;;;;;;7.93;3.42;;;;;;;;;;5081892;28;20046;-66
2023/05/21 00:37:57;;;;;;;8.93;3.92;;;;;;;;;;5095961;28;20047;-66
2023/05/21 00:40:23;;;;;;;8.40;3.20;;;;;;;;;;5091964;27;20428;-66
2023/05/21 00:42:49;;;;;;;8.68;3.90;;;;;;;;;;5099554;28;20147;-65
2023/05/21 00:45:15;;;;;;;6.60;3.70;;;;;;;;;;5073620;28;20082;-66
2023/05/21 00:47:42;;;;;;;6.70;3.22;;;;;;;;;;5092912;28;20043;-66
2023/05/21 00:50:09;;;;;;;6.70;3.70;;;;;;;;;;5093048;28;20099;-66
2023/05/21 00:52:40;;;;;;;7.30;3.80;;;;;;;;;;5093057;28;20031;-66
2023/05/21 00:55:07;;;;;;;8.15;3.78;;;;;;;;;;5077129;28;20040;-65
2023/05/21 00:57:35;;;;;;;8.60;3.97;;;;;;;;;;5096934;28;20051;-65
2023/05/21 01:00:03;;;;;;;6.07;3.30;;;;;;;;;;5077497;28;20040;-66
2023/05/21 01:02:33;;;;;;;7.70;4.25;;;;;;;;;;5094298;27;20058;-66
2023/05/21 01:04:59;;;;;;;7.72;3.47;;;;;;;;;;5093203;28;20059;-66
2023/05/21 01:07:25;;;;;;;5.82;3.45;;;;;;;;;;5071141;28;20483;-66
2023/05/21 01:09:53;;;;;;;5.80;3.50;;;;;;;;;;5086619;28;20165;-66
2023/05/21 01:12:20;;;;;;;6.18;3.40;;;;;;;;;;5070047;28;20498;-65
2023/05/21 01:14:46;;;;;;;6.82;3.72;;;;;;;;;;5087461;28;20139;-66
2023/05/21 01:17:13;;;;;;;6.57;3.15;;;;;;;;;;5085857;28;20059;-66
2023/05/21 01:19:40;;;;;;;7.45;3.88;;;;;;;;;;5068476;28;20519;-66
2023/05/21 01:22:07;;;;;;;8.68;3.53;;;;;;;;;;5068276;28;20056;-66
2023/05/21 01:24:34;;;;;;;7.15;3.95;;;;;;;;;;5067979;28;20044;-66
2023/05/21 01:27:02;;;;;;;9.45;4.22;;;;;;;;;;5086738;28;20761;-66
2023/05/21 01:29:28;;;;;;;6.57;3.40;;;;;;;;;;5086444;28;20036;-66
2023/05/21 01:31:57;;;;;;;7.82;3.72;;;;;;;;;;5086893;28;20063;-66
2023/05/21 01:34:26;;;;;;;7.85;3.35;;;;;;;;;;5087356;28;20042;-66
2023/05/21 01:36:56;;;;;;;8.02;3.20;;;;;;;;;;5072271;28;20052;-66
2023/05/21 01:39:25;;;;;;;7.68;3.95;;;;;;;;;;5069198;28;20123;-66
2023/05/21 01:41:53;;;;;;;7.25;3.55;;;;;;;;;;5086241;28;20050;-66
2023/05/21 01:44:19;;;;;;;8.45;3.72;;;;;;;;;;5067515;28;20048;-66
2023/05/21 01:46:46;;;;;;;9.13;3.83;;;;;;;;;;5069605;28;20122;-66
2023/05/21 01:49:12;;;;;;;7.85;3.67;;;;;;;;;;5069130;28;20135;-66
2023/05/21 01:51:38;;;;;;;9.77;4.25;;;;;;;;;;5069815;28;20058;-66
2023/05/21 01:54:05;;;;;;;8.05;4.18;;;;;;;;;;5070314;28;20052;-66
2023/05/21 01:56:32;;;;;;;8.48;3.80;;;;;;;;;;5087468;28;20040;-66
2023/05/21 01:58:59;;;;;;;10.13;4.38;;;;;;;;;;5073183;28;20074;-66
2023/05/21 02:01:26;;;;;;;8.05;4.47;;;;;;;;;;5074336;28;20491;-66
2023/05/21 02:03:52;;;;;;;9.15;4.90;;;;;;;;;;5097259;28;20051;-65
2023/05/21 02:06:18;;;;;;;7.28;4.70;;;;;;;;;;5070614;28;20150;-66
2023/05/21 02:08:45;;;;;;;8.90;4.90;;;;;;;;;;5091569;28;20043;-66
2023/05/21 02:11:11;;;;;;;15.48;6.47;;;;;;;;;;5090334;27;21726;-66
2023/05/21 02:13:41;;;;;;;9.90;5.43;;;;;;;;;;5073167;28;20054;-66
2023/05/21 02:16:10;;;;;;;13.98;5.97;;;;;;;;;;5079899;27;20127;-66
2023/05/21 02:18:37;;;;;;;9.68;5.40;;;;;;;;;;5093193;27;20075;-66
2023/05/21 02:21:03;;;;;;;9.82;5.70;;;;;;;;;;5076299;27;20429;-66
2023/05/21 02:23:29;;;;;;;9.95;5.30;;;;;;;;;;5072823;28;20145;-66
2023/05/21 02:25:55;;;;;;;13.43;6.15;;;;;;;;;;5092452;27;20048;-66
2023/05/21 02:28:22;;;;;;;9.95;5.40;;;;;;;;;;5093742;27;20157;-65
2023/05/21 02:30:48;;;;;;;17.02;6.30;;;;;;;;;;5091157;27;20052;-66
2023/05/21 02:33:15;;;;;;;11.43;5.40;;;;;;;;;;5090529;27;20443;-65
2023/05/21 02:35:43;;;;;;;10.60;5.30;;;;;;;;;;5093771;27;20051;-66
2023/05/21 02:38:12;;;;;;;9.75;5.35;;;;;;;;;;5094211;27;20048;-65
2023/05/21 02:40:38;;;;;;;10.13;5.95;;;;;;;;;;5088955;27;20122;-66
2023/05/21 02:43:05;;;;;;;12.65;5.95;;;;;;;;;;5091973;27;20063;-66
2023/05/21 02:45:31;;;;;;;12.70;5.45;;;;;;;;;;5072967;27;20039;-66
2023/05/21 02:47:57;;;;;;;22.00;6.30;;;;;;;;;;5093666;27;20620;-66
2023/05/21 02:50:23;;;;;;;12.57;5.93;;;;;;;;;;5073929;28;20553;-66
2023/05/21 02:52:49;;;;;;;9.95;5.07;;;;;;;;;;5072403;27;20530;-66
2023/05/21 02:55:15;;;;;;;12.73;5.75;;;;;;;;;;5070725;28;20047;-65
2023/05/21 02:57:41;;;;;;;11.90;5.53;;;;;;;;;;5093011;27;20134;-66
2023/05/21 03:00:08;;;;;;;12.20;5.80;;;;;;;;;;5076280;27;20078;-66
2023/05/21 03:02:34;;;;;;;14.43;6.13;;;;;;;;;;5093929;27;20043;-65
2023/05/21 03:05:01;;;;;;;12.48;5.85;;;;;;;;;;5075577;28;20047;-66
2023/05/21 03:07:27;;;;;;;16.15;6.85;;;;;;;;;;5092874;27;20372;-66
2023/05/21 03:09:54;;;;;;;13.10;5.40;;;;;;;;;;5093140;27;20643;-66
2023/05/21 03:12:20;;;;;;;14.75;5.95;;;;;;;;;;5071387;28;20050;-66
2023/05/21 03:14:46;;;;;;;15.05;6.07;;;;;;;;;;5089823;27;20032;-66
2023/05/21 03:17:13;;;;;;;13.25;5.57;;;;;;;;;;5093878;27;20118;-66
2023/05/21 03:19:41;;;;;;;12.68;5.40;;;;;;;;;;5073713;27;20097;-66
2023/05/21 03:22:07;;;;;;;12.75;5.85;;;;;;;;;;5092112;27;20183;-66
2023/05/21 03:24:34;;;;;;;12.68;6.35;;;;;;;;;;5092057;27;20048;-66
2023/05/21 03:27:00;;;;;;;14.63;5.93;;;;;;;;;;5093419;27;20044;-65
2023/05/21 03:29:27;;;;;;;16.20;7.03;;;;;;;;;;5088939;27;20495;-65
2023/05/21 03:31:53;;;;;;;12.05;5.13;;;;;;;;;;5073961;28;20048;-65
2023/05/21 03:34:19;;;;;;;14.55;5.65;;;;;;;;;;5074139;28;20055;-65
2023/05/21 03:36:46;;;;;;;17.08;6.93;;;;;;;;;;5075326;27;20052;-65
2023/05/21 03:39:12;;;;;;;18.17;6.10;;;;;;;;;;5093740;27;20097;-66
2023/05/21 03:41:38;;;;;;;12.13;6.25;;;;;;;;;;5054211;27;20048;-65
2023/05/21 03:44:04;;;;;;;16.33;7.40;;;;;;;;;;5089227;27;20111;-65
2023/05/21 03:46:31;;;;;;;13.13;5.72;;;;;;;;;;5074835;28;20055;-65
2023/05/21 03:48:57;;;;;;;16.50;6.53;;;;;;;;;;5092776;28;20177;-66
2023/05/21 03:51:24;;;;;;;16.67;6.90;;;;;;;;;;5089570;27;21861;-66
2023/05/21 03:53:50;;;;;;;13.10;5.65;;;;;;;;;;5092469;27;21050;-66
2023/05/21 03:56:17;;;;;;;12.57;5.78;;;;;;;;;;5093156;27;20128;-66
2023/05/21 03:58:43;;;;;;;13.75;5.63;;;;;;;;;;5090045;27;20036;-66
2023/05/21 04:01:09;;;;;;;9.73;5.05;;;;;;;;;;5093382;27;20077;-66
2023/05/21 04:03:36;;;;;;;12.45;5.38;;;;;;;;;;5094293;27;20411;-66
2023/05/21 04:06:02;;;;;;;14.23;6.15;;;;;;;;;;5097894;27;20043;-66
2023/05/21 04:08:28;;;;;;;12.98;5.07;;;;;;;;;;5092885;27;20051;-66
2023/05/21 04:10:55;;;;;;;14.05;5.45;;;;;;;;;;5072389;27;20096;-66
2023/05/21 04:13:21;;;;;;;16.13;5.70;;;;;;;;;;5090266;27;20466;-66
2023/05/21 04:15:47;;;;;;;9.55;4.82;;;;;;;;;;5070317;27;20547;-66
2023/05/21 04:18:19;;;;;;;11.57;4.75;;;;;;;;;;5071555;27;20062;-66
2023/05/21 04:20:45;;;;;;;11.98;4.95;;;;;;;;;;5071996;27;20510;-66
2023/05/21 04:23:11;;;;;;;14.15;5.70;;;;;;;;;;5072477;28;20469;-65
2023/05/21 04:25:37;;;;;;;13.55;5.15;;;;;;;;;;5072339;28;21204;-65
2023/05/21 04:28:04;;;;;;;21.10;5.78;;;;;;;;;;5088219;27;20052;-66
2023/05/21 04:30:30;;;;;;;12.88;5.72;;;;;;;;;;5071007;28;20135;-65
2023/05/21 04:32:56;;;;;;;12.15;4.68;;;;;;;;;;5075808;27;20078;-65
2023/05/21 04:35:22;;;;;;;11.90;4.28;;;;;;;;;;5093407;27;20460;-66
2023/05/21 04:37:49;;;;;;;17.98;5.00;;;;;;;;;;5074892;28;20443;-66
2023/05/21 04:40:17;;;;;;;13.15;4.75;;;;;;;;;;5089261;28;20052;-66
2023/05/21 04:42:45;;;;;;;11.63;4.70;;;;;;;;;;5090917;27;20043;-66
2023/05/21 04:45:11;;;;;;;14.25;4.30;;;;;;;;;;5088105;27;20047;-66
2023/05/21 04:47:37;;;;;;;14.50;4.30;;;;;;;;;;5089740;27;21195;-66
2023/05/21 04:50:04;;;;;;;14.63;4.95;;;;;;;;;;5089143;28;20032;-66
2023/05/21 04:52:30;;;;;;;11.10;4.35;;;;;;;;;;5075593;28;20069;-66
2023/05/21 04:54:56;;;;;;;11.32;4.53;;;;;;;;;;5054835;28;20078;-66
2023/05/21 04:57:24;;;;;;;13.05;3.88;;;;;;;;;;5070651;28;20048;-65
2023/05/21 04:59:50;;;;;;;15.95;4.15;;;;;;;;;;5087927;27;20508;-66
2023/05/21 05:02:16;;;;;;;11.48;4.30;;;;;;;;;;5091515;28;20083;-65
2023/05/21 05:04:42;;;;;;;14.00;4.10;;;;;;;;;;5092666;27;20103;-66
2023/05/21 05:07:09;;;;;;;10.43;3.80;;;;;;;;;;5087797;28;20084;-66
2023/05/21 05:09:35;;;;;;;8.90;3.92;;;;;;;;;;5091500;27;20043;-66
2023/05/21 05:12:01;;;;;;;10.30;4.13;;;;;;;;;;5088454;28;20066;-66
2023/05/21 05:14:27;;;;;;;10.85;4.03;;;;;;;;;;5068636;28;20512;-65
2023/05/21 05:16:58;;;;;;;9.65;3.83;;;;;;;;;;5091906;28;20490;-66
2023/05/21 05:19:24;;;;;;;11.90;4.13;;;;;;;;;;5088674;28;20044;-66
2023/05/21 05:21:50;;;;;;;11.60;4.13;;;;;;;;;;5072812;28;20047;-66
2023/05/21 05:24:17;;;;;;;10.02;3.78;;;;;;;;;;5089556;28;20146;-66
2023/05/21 05:26:43;;;;;;;13.27;4.50;;;;;;;;;;5075522;28;20468;-66
2023/05/21 05:29:09;;;;;;;10.95;4.72;;;;;;;;;;5088781;28;20131;-65
2023/05/21 05:31:35;;;;;;;12.32;4.07;;;;;;;;;;5069560;28;20120;-66
2023/05/21 05:34:01;;;;;;;16.08;4.63;;;;;;;;;;5072557;28;20054;-66
2023/05/21 05:36:27;;;;;;;13.07;4.90;;;;;;;;;;5090088;28;20100;-66
2023/05/21 05:38:54;;;;;;;13.20;4.57;;;;;;;;;;5090680;28;20051;-66
2023/05/21 05:41:20;;;;;;;13.95;4.80;;;;;;;;;;5074292;28;20036;-66
2023/05/21 05:43:46;;;;;;;8.95;4.28;;;;;;;;;;5074193;28;20145;-66
2023/05/21 05:46:12;;;;;;;12.45;4.22;;;;;;;;;;5094579;28;20051;-65
2023/05/21 05:48:38;;;;;;;13.23;4.32;;;;;;;;;;5073788;27;20036;-66
2023/05/21 05:51:04;;;;;;;18.85;6.00;;;;;;;;;;5092505;27;20047;-65
2023/05/21 05:53:32;;;;;;;17.02;4.18;;;;;;;;;;5075348;28;20119;-66
2023/05/21 05:55:58;;;;;;;11.55;4.75;;;;;;;;;;5093841;27;20090;-66
2023/05/21 05:58:24;;;;;;;11.57;4.88;;;;;;;;;;5073823;28;20414;-65
2023/05/21 06:00:51;;;;;;;14.52;5.50;;;;;;;;;;5096337;28;20067;-66
2023/05/21 06:03:17;;;;;;;10.88;4.50;;;;;;;;;;5094888;28;20044;-66
2023/05/21 06:05:43;;;;;;;10.90;4.07;;;;;;;;;;5096433;27;20040;-66
2023/05/21 06:08:10;;;;;;;11.15;4.53;;;;;;;;;;5073934;27;20048;-65
2023/05/21 06:10:36;;;;;;;18.65;5.22;;;;;;;;;;5075007;28;20039;-65
2023/05/21 06:13:02;;;;;;;11.15;4.60;;;;;;;;;;5098234;27;20058;-68
2023/05/21 06:15:30;;;;;;;10.82;4.32;;;;;;;;;;5098777;27;20051;-66
2023/05/21 06:17:56;;;;;;;8.90;4.40;;;;;;;;;;5096423;27;20048;-65
2023/05/21 06:20:22;;;;;;;13.48;4.20;;;;;;;;;;5095379;27;20040;-65
2023/05/21 06:22:48;;;;;;;12.88;4.22;;;;;;;;;;5075961;28;20339;-65
2023/05/21 06:25:15;;;;;;;14.23;4.50;;;;;;;;;;5096394;28;20043;-65
2023/05/21 06:27:41;;;;;;;12.48;4.88;;;;;;;;;;5077806;28;20090;-64
2023/05/21 06:30:07;;;;;;;14.68;4.50;;;;;;;;;;5093771;28;20087;-65
2023/05/21 06:32:33;;;;;;;11.05;4.00;;;;;;;;;;5072700;28;20043;-65
2023/05/21 06:35:00;;;;;;;11.88;3.80;;;;;;;;;;5092904;28;20067;-64
2023/05/21 06:37:27;;;;;;;9.57;4.10;;;;;;;;;;5094185;28;20490;-65
2023/05/21 06:39:53;;;;;;;10.82;4.28;;;;;;;;;;5092769;28;20106;-65
2023/05/21 06:42:19;;;;;;;10.98;3.72;;;;;;;;;;5078667;28;20052;-65
2023/05/21 06:44:45;;;;;;;9.68;3.92;;;;;;;;;;5095387;28;20032;-65
2023/05/21 06:47:11;;;;;;;11.05;3.90;;;;;;;;;;5090129;28;20040;-65
2023/05/21 06:49:37;;;;;;;14.05;5.05;;;;;;;;;;5096885;28;20044;-65
2023/05/21 06:52:04;;;;;;;9.30;3.60;;;;;;;;;;5077868;27;20051;-65
2023/05/21 06:54:30;;;;;;;9.57;3.63;;;;;;;;;;5094241;27;20032;-66
2023/05/21 06:56:56;;;;;;;11.20;3.95;;;;;;;;;;5094158;27;20050;-65
2023/05/21 06:59:22;;;;;;;11.93;3.83;;;;;;;;;;5093199;27;20123;-65
2023/05/21 07:01:48;;;;;;;10.05;3.97;;;;;;;;;;5094406;28;20085;-65
2023/05/21 07:04:14;;;;;;;12.00;3.95;;;;;;;;;;5094641;27;20559;-65
2023/05/21 07:06:40;;;;;;;8.00;3.63;;;;;;;;;;5071149;28;20055;-65
2023/05/21 07:09:07;;;;;;;9.05;3.95;;;;;;;;;;5095240;27;20040;-65
2023/05/21 07:11:33;;;;;;;9.55;3.92;;;;;;;;;;5102161;27;20043;-65
2023/05/21 07:13:59;;;;;;;10.07;3.65;;;;;;;;;;5082286;28;20047;-66
2023/05/21 07:16:26;;;;;;;7.20;3.88;;;;;;;;;;5072543;28;20066;-65
2023/05/21 07:18:52;;;;;;;11.80;4.47;;;;;;;;;;5080872;27;20067;-65
2023/05/21 07:21:18;;;;;;;8.00;3.47;;;;;;;;;;5096282;27;20051;-66
2023/05/21 07:23:44;;;;;;;9.50;4.50;;;;;;;;;;5098745;27;20039;-65
2023/05/21 07:26:10;;;;;;;7.82;3.97;;;;;;;;;;5101190;27;20124;-65
2023/05/21 07:28:36;;;;;;;12.27;5.03;;;;;;;;;;5096623;28;20070;-66
2023/05/21 07:31:02;;;;;;;8.50;3.80;;;;;;;;;;5075727;27;20044;-68
2023/05/21 07:33:29;;;;;;;10.40;4.38;;;;;;;;;;5078848;27;20173;-66
2023/05/21 07:35:55;;;;;;;8.25;3.55;;;;;;;;;;5096304;27;20139;-66
2023/05/21 07:38:21;;;;;;;8.88;3.78;;;;;;;;;;5081349;28;20054;-66
2023/05/21 07:40:47;;;;;;;8.40;3.83;;;;;;;;;;5099987;27;20051;-65
2023/05/21 07:43:13;;;;;;;7.72;3.58;;;;;;;;;;5074034;28;20044;-65
2023/05/21 07:45:39;;;;;;;10.38;3.97;;;;;;;;;;5103347;28;20039;-66
2023/05/21 07:48:06;;;;;;;7.43;3.35;;;;;;;;;;5079587;28;20040;-66
2023/05/21 07:50:32;;;;;;;8.50;3.60;;;;;;;;;;5094649;27;20036;-66
2023/05/21 07:52:58;;;;;;;8.63;3.13;;;;;;;;;;5071959;28;20052;-65
2023/05/21 07:55:24;;;;;;;9.85;3.45;;;;;;;;;;5095775;28;20111;-65
2023/05/21 07:57:51;;;;;;;9.18;3.20;;;;;;;;;;5074800;28;20391;-65
2023/05/21 08:00:17;;;;;;;6.97;3.88;;;;;;;;;;5082821;28;20127;-65
2023/05/21 08:02:44;;;;;;;10.98;4.07;;;;;;;;;;5078388;28;20043;-65
2023/05/21 08:05:10;;;;;;;7.85;3.65;;;;;;;;;;5081860;27;20446;-66
2023/05/21 08:07:36;;;;;;;10.38;3.85;;;;;;;;;;5098451;27;20040;-65
2023/05/21 08:10:03;;;;;;;6.85;3.33;;;;;;;;;;5100827;27;20102;-65
2023/05/21 08:12:29;;;;;;;9.40;3.38;;;;;;;;;;5079922;27;20044;-65
2023/05/21 08:14:58;;;;;;;11.75;3.75;;;;;;;;;;5096885;27;20048;-65
2023/05/21 08:17:24;;;;;;;8.27;3.28;;;;;;;;;;5103298;27;20043;-66
2023/05/21 08:19:50;;;;;;;14.65;4.22;;;;;;;;;;5093958;28;20074;-65
2023/05/21 08:22:17;;;;;;;5.70;3.17;;;;;;;;;;5097438;27;20092;-65
2023/05/21 08:24:43;;;;;;;9.15;3.10;;;;;;;;;;5098029;27;20112;-65
2023/05/21 08:27:18;;;;;;;8.32;3.00;;;;;;;;;;5137080;27;20485;-64
2023/05/21 08:29:45;;;;;;;7.55;3.20;;;;;;;;;;5124722;27;20437;-64
2023/05/21 08:32:11;;;;;;;9.00;3.70;;;;;;;;;;5128777;27;20047;-64
2023/05/21 08:34:37;;;;;;;7.13;2.83;;;;;;;;;;5130785;27;20128;-64
2023/05/21 08:37:03;;;;;;;8.85;3.17;;;;;;;;;;5129867;27;20039;-64
2023/05/21 08:39:29;;;;;;;8.57;3.05;;;;;;;;;;5125634;27;20054;-64
2023/05/21 08:42:01;;;;;;;7.82;3.58;;;;;;;;;;5129511;27;20118;-64
2023/05/21 08:44:29;;;;;;;13.95;3.20;;;;;;;;;;5128083;27;20511;-64
2023/05/21 08:46:57;;;;;;;7.90;3.40;;;;;;;;;;5126948;27;20500;-64
2023/05/21 08:49:26;;;;;;;10.82;3.13;;;;;;;;;;5126262;27;20498;-64
2023/05/21 08:51:53;;;;;;;8.85;3.22;;;;;;;;;;5127646;27;20066;-64
2023/05/21 08:54:19;;;;;;;7.03;2.97;;;;;;;;;;5124004;27;20118;-64
2023/05/21 08:56:48;;;;;;;10.27;3.30;;;;;;;;;;5124683;27;20119;-64
2023/05/21 08:59:15;;;;;;;11.82;3.58;;;;;;;;;;5122215;27;20043;-64
2023/05/21 09:01:41;;;;;;;9.85;3.50;;;;;;;;;;5123595;27;20043;-64
2023/05/21 09:04:08;;;;;;;7.18;2.95;;;;;;;;;;5126071;27;20046;-64
2023/05/21 09:06:34;;;;;;;8.63;3.30;;;;;;;;;;5130415;27;20064;-64
2023/05/21 09:09:04;;;;;;;7.50;3.10;;;;;;;;;;5124959;27;20042;-64
2023/05/21 09:11:30;;;;;;;8.82;3.85;;;;;;;;;;5130178;27;20072;-64
2023/05/21 09:13:57;;;;;;;12.02;3.75;;;;;;;;;;5135258;27;20093;-64
2023/05/21 09:16:23;;;;;;;17.77;3.72;;;;;;;;;;5135736;27;20087;-64
2023/05/21 09:18:49;;;;;;;8.68;3.20;;;;;;;;;;5128146;27;20039;-64
2023/05/21 09:21:23;;;;;;;10.75;3.17;;;;;;;;;;5121926;27;20043;-64
2023/05/21 09:23:56;;;;;;;10.10;3.20;;;;;;;;;;5126709;27;20035;-64
2023/05/21 09:26:23;;;;;;;9.80;3.67;;;;;;;;;;5124842;27;20044;-64
2023/05/21 09:28:49;;;;;;;8.45;3.40;;;;;;;;;;5122903;27;20095;-64
2023/05/21 09:31:15;;;;;;;8.18;3.80;;;;;;;;;;5125057;27;20652;-65
2023/05/21 09:33:46;;;;;;;7.47;3.55;;;;;;;;;;5124594;27;20390;-64
2023/05/21 09:36:13;;;;;;;7.70;2.92;;;;;;;;;;5121201;27;20515;-66
2023/05/21 09:38:39;;;;;;;6.53;3.10;;;;;;;;;;5107261;27;20058;-64
2023/05/21 09:41:05;;;;;;;8.70;3.22;;;;;;;;;;5109860;27;20402;-66
2023/05/21 09:43:32;;;;;;;10.32;3.42;;;;;;;;;;5104230;27;20039;-66
2023/05/21 09:45:59;;;;;;;11.70;3.17;;;;;;;;;;5100164;27;20130;-66
2023/05/21 09:48:37;;;;;;;8.55;3.63;;;;;;;;;;5101926;27;20663;-66
2023/05/21 09:51:09;;;;;;;8.13;2.78;;;;;;;;;;5102522;27;20419;-66
2023/05/21 09:53:35;;;;;;;8.48;3.40;;;;;;;;;;5097578;27;20042;-66
2023/05/21 09:56:02;;;;;;;7.85;3.13;;;;;;;;;;5095646;27;20093;-66
2023/05/21 09:58:29;;;;;;;8.80;2.88;;;;;;;;;;5100067;27;20035;-66
2023/05/21 10:00:56;;;;;;;7.55;3.25;;;;;;;;;;5127553;27;20451;-66
2023/05/21 10:03:23;;;;;;;9.35;3.10;;;;;;;;;;5096038;27;20427;-66
2023/05/21 10:05:50;;;;;;;5.85;3.10;;;;;;;;;;5101505;27;20359;-66
2023/05/21 10:08:18;;;;;;;7.93;2.80;;;;;;;;;;5099343;27;20547;-66
2023/05/21 10:10:44;;;;;;;8.48;3.25;;;;;;;;;;5098765;27;20039;-66
2023/05/21 10:13:12;;;;;;;7.80;2.80;;;;;;;;;;5099599;27;20048;-66
2023/05/21 10:15:40;;;;;;;8.95;3.10;;;;;;;;;;5096155;27;20052;-66
2023/05/21 10:18:08;;;;;;;6.43;3.15;;;;;;;;;;5098203;27;20043;-66
2023/05/21 10:20:35;;;;;;;11.52;2.95;;;;;;;;;;5098669;27;20099;-66
2023/05/21 10:23:02;;;;;;;9.82;3.45;;;;;;;;;;5100958;27;20515;-66
2023/05/21 10:25:28;;;;;;;8.00;3.10;;;;;;;;;;5096277;27;20055;-67
2023/05/21 10:27:55;;;;;;;7.20;3.30;;;;;;;;;;5102708;27;20052;-67
2023/05/21 10:30:21;;;;;;;6.22;2.72;;;;;;;;;;5105911;27;20062;-66
2023/05/21 10:32:48;;;;;;;6.13;2.67;;;;;;;;;;5102250;27;20541;-66
2023/05/21 10:35:15;;;;;;;6.53;2.53;;;;;;;;;;5106245;27;20042;-66
2023/05/21 10:37:43;;;;;;;7.78;3.28;;;;;;;;;;5099140;27;20043;-66
2023/05/21 10:40:09;;;;;;;7.15;2.85;;;;;;;;;;5106592;27;20058;-66
2023/05/21 10:42:36;;;;;;;9.15;3.30;;;;;;;;;;5099997;27;20062;-66
2023/05/21 10:45:03;;;;;;;9.40;2.83;;;;;;;;;;5086725;28;20040;-66
2023/05/21 10:47:36;;;;;;;9.02;3.08;;;;;;;;;;5110597;27;20051;-66
2023/05/21 10:50:08;;;;;;;8.80;3.70;;;;;;;;;;5106256;27;20044;-66
2023/05/21 10:52:53;;;;;;;9.93;3.03;;;;;;;;;;5112871;27;20317;-66
2023/05/21 10:55:38;;;;;;;7.55;2.65;;;;;;;;;;5103069;27;20039;-66
2023/05/21 10:58:21;;;;;;;5.70;2.50;;;;;;;;;;5103524;27;20039;-66
2023/05/21 11:00:47;;;;;;;8.10;2.70;;;;;;;;;;5103496;27;20052;-66
2023/05/21 11:03:14;;;;;;;7.35;3.35;;;;;;;;;;5104232;27;20176;-65
2023/05/21 11:05:41;;;;;;;10.18;2.97;;;;;;;;;;5100227;27;20054;-65
2023/05/21 11:08:21;;;;;;;8.23;2.97;;;;;;;;;;5105220;27;20052;-65
2023/05/21 11:10:51;;;;;;;6.45;2.67;;;;;;;;;;5113265;27;20563;-65
2023/05/21 11:13:20;;;;;;;8.15;2.80;;;;;;;;;;5112719;27;20139;-65
2023/05/21 11:15:58;;;;;;;6.40;3.08;;;;;;;;;;5112255;27;20052;-65
2023/05/21 11:18:36;;;;;;;10.43;3.30;;;;;;;;;;5115183;27;20055;-65
2023/05/21 11:21:05;;;;;;;7.03;3.08;;;;;;;;;;5114576;27;20055;-66
2023/05/21 11:23:50;;;;;;;8.57;3.13;;;;;;;;;;5111751;27;20043;-65
2023/05/21 11:26:16;;;;;;;7.47;2.72;;;;;;;;;;5114286;27;20054;-65
2023/05/21 11:28:42;;;;;;;8.13;3.28;;;;;;;;;;5104649;27;20135;-66
2023/05/21 11:31:23;;;;;;;7.43;3.25;;;;;;;;;;5107366;27;20545;-65
2023/05/21 11:34:08;;;;;;;6.00;2.42;;;;;;;;;;5106112;27;20076;-65
2023/05/21 11:36:36;;;;;;;9.90;3.55;;;;;;;;;;5107611;27;20496;-65
2023/05/21 11:39:11;;;;;;;7.70;3.20;;;;;;;;;;5107461;27;20135;-65
2023/05/21 11:41:56;;;;;;;10.05;3.30;;;;;;;;;;5100716;27;20499;-65
2023/05/21 11:44:41;;;;;;;6.38;3.05;;;;;;;;;;5105924;27;20458;-65
2023/05/21 11:47:08;;;;;;;8.13;3.03;;;;;;;;;;5108785;27;20051;-64
2023/05/21 11:49:35;;;;;;;8.77;3.22;;;;;;;;;;5107544;27;20040;-64
2023/05/21 11:52:02;;;;;;;7.18;3.20;;;;;;;;;;5106745;27;20066;-64
2023/05/21 11:54:36;;;;;;;9.05;3.38;;;;;;;;;;5110534;27;20058;-65
2023/05/21 11:57:06;;;;;;;6.70;2.83;;;;;;;;;;5105628;27;20129;-65
2023/05/21 11:59:33;;;;;;;7.57;3.75;;;;;;;;;;5114173;27;20128;-64
2023/05/21 12:02:00;;;;;;;9.88;3.40;;;;;;;;;;5102525;27;20076;-64
2023/05/21 12:04:35;;;;;;;6.68;3.38;;;;;;;;;;5107253;27;20062;-64
2023/05/21 12:07:07;;;;;;;6.13;3.30;;;;;;;;;;5124962;27;20058;-64
2023/05/21 12:09:41;;;;;;;7.82;3.30;;;;;;;;;;5103855;27;20052;-64
2023/05/21 12:12:08;;;;;;;8.25;3.95;;;;;;;;;;5106102;27;20047;-64
2023/05/21 12:14:35;;;;;;;6.05;3.08;;;;;;;;;;5101994;27;20039;-65
2023/05/21 12:17:02;;;;;;;7.03;3.38;;;;;;;;;;5123413;27;20031;-65
2023/05/21 12:19:32;;;;;;;17.42;4.35;;;;;;;;;;5106988;27;20079;-65
2023/05/21 12:21:59;;;;;;;6.90;3.10;;;;;;;;;;5109730;27;20116;-65
2023/05/21 12:24:26;;;;;;;6.53;3.25;;;;;;;;;;5116042;28;20145;-65
2023/05/21 12:26:53;;;;;;;6.75;3.33;;;;;;;;;;5107921;28;20073;-64
2023/05/21 12:29:22;;;;;;;6.97;3.40;;;;;;;;;;5105063;28;20506;-66
2023/05/21 12:31:48;;;;;;;7.05;3.88;;;;;;;;;;5100932;28;20054;-66
2023/05/21 12:34:17;;;;;;;11.80;3.80;;;;;;;;;;5109333;28;20100;-66
2023/05/21 12:36:47;;;;;;;6.55;3.72;;;;;;;;;;5108000;28;20059;-66
2023/05/21 12:39:14;;;;;;;13.65;3.65;;;;;;;;;;5109221;28;20403;-67
2023/05/21 12:41:40;;;;;;;7.60;3.47;;;;;;;;;;5109433;28;20057;-66
2023/05/21 12:44:07;;;;;;;6.13;3.25;;;;;;;;;;5108472;28;20035;-66
2023/05/21 12:46:33;;;;;;;7.20;3.72;;;;;;;;;;5108444;28;20040;-65
2023/05/21 12:49:00;;;;;;;9.60;3.72;;;;;;;;;;5106921;28;20766;-66
2023/05/21 12:51:26;;;;;;;9.35;4.15;;;;;;;;;;5105219;28;20154;-66
2023/05/21 12:53:52;;;;;;;9.13;4.63;;;;;;;;;;5109141;28;20058;-67
2023/05/21 12:56:18;;;;;;;8.38;4.32;;;;;;;;;;5111384;28;20462;-65
2023/05/21 12:58:49;;;;;;;12.30;4.95;;;;;;;;;;5106146;28;20471;-66
2023/05/21 13:01:15;;;;;;;10.45;4.68;;;;;;;;;;5104002;28;20837;-66
2023/05/21 13:03:42;;;;;;;7.97;4.22;;;;;;;;;;5105381;28;20039;-67
2023/05/21 13:06:09;;;;;;;7.43;4.00;;;;;;;;;;5111184;28;20044;-67
2023/05/21 13:08:35;;;;;;;7.40;4.60;;;;;;;;;;5108690;28;20053;-66
2023/05/21 13:11:01;;;;;;;10.13;4.97;;;;;;;;;;5111841;28;20054;-66
2023/05/21 13:13:28;;;;;;;9.43;5.28;;;;;;;;;;5109585;27;20040;-66
2023/05/21 13:15:54;;;;;;;13.32;5.82;;;;;;;;;;5113629;27;20105;-66
2023/05/21 13:18:21;;;;;;;12.52;5.03;;;;;;;;;;5125858;27;20106;-66
2023/05/21 13:20:48;;;;;;;9.32;5.53;;;;;;;;;;5117380;27;20439;-66
2023/05/21 13:23:15;;;;;;;11.48;5.97;;;;;;;;;;5114506;27;20051;-66
2023/05/21 13:25:41;;;;;;;11.82;5.28;;;;;;;;;;5107923;27;20058;-66
2023/05/21 13:28:09;;;;;;;9.05;5.15;;;;;;;;;;5105716;27;20047;-66
2023/05/21 13:30:35;;;;;;;10.65;5.82;;;;;;;;;;5109844;27;20043;-66
2023/05/21 13:33:02;;;;;;;10.05;4.97;;;;;;;;;;5108747;27;20085;-66
2023/05/21 13:35:29;;;;;;;9.55;5.10;;;;;;;;;;5116445;27;20043;-66
2023/05/21 13:37:55;;;;;;;9.55;5.53;;;;;;;;;;5112182;27;20043;-66
2023/05/21 13:40:22;;;;;;;8.73;5.57;;;;;;;;;;5107448;27;20048;-65
2023/05/21 13:42:49;;;;;;;8.77;5.82;;;;;;;;;;5109888;27;20043;-65
2023/05/21 13:45:17;;;;;;;10.15;6.18;;;;;;;;;;5102792;27;20054;-65
2023/05/21 13:47:43;;;;;;;10.05;7.60;;;;;;;;;;5110687;27;20044;-65
2023/05/21 13:50:09;;;;;;;13.93;7.75;;;;;;;;;;5110549;27;20039;-65
2023/05/21 13:52:36;;;;;;;13.68;7.88;;;;;;;;;;5115348;27;20040;-65
2023/05/21 13:55:02;;;;;;;13.27;8.60;;;;;;;;;;5114033;27;20046;-66
2023/05/21 13:57:29;;;;;;;14.15;9.32;;;;;;;;;;5114441;27;20134;-66
2023/05/21 13:59:56;;;;;;;13.60;9.00;;;;;;;;;;5107826;27;20035;-66
2023/05/21 14:02:22;;;;;;;15.60;8.93;;;;;;;;;;5108083;27;20072;-66
2023/05/21 14:04:49;;;;;;;13.18;9.02;;;;;;;;;;5108976;27;20039;-66
2023/05/21 14:07:15;;;;;;;12.80;8.77;;;;;;;;;;5105956;27;20039;-66
2023/05/21 14:09:41;;;;;;;12.73;9.27;;;;;;;;;;5108660;27;20123;-65
2023/05/21 14:12:08;;;;;;;13.25;9.18;;;;;;;;;;5107291;27;20054;-65
2023/05/21 14:14:34;;;;;;;13.60;9.02;;;;;;;;;;5105541;27;20036;-65
2023/05/21 14:17:01;;;;;;;13.90;8.68;;;;;;;;;;5108018;27;20430;-65
2023/05/21 14:19:27;;;;;;;12.93;8.20;;;;;;;;;;5106969;27;20035;-65
2023/05/21 14:21:53;;;;;;;14.63;8.52;;;;;;;;;;5109566;27;20383;-65
2023/05/21 14:24:19;;;;;;;13.20;7.88;;;;;;;;;;5108630;27;20153;-65
2023/05/21 14:26:45;;;;;;;13.20;8.20;;;;;;;;;;5105328;27;20467;-66
2023/05/21 14:29:11;;;;;;;14.13;8.18;;;;;;;;;;5104997;27;20506;-65
2023/05/21 14:31:38;;;;;;;31.48;21.27;;;;;;;;;;5113026;27;20380;-65
2023/05/21 14:34:06;;;;;;;160.27;141.07;;;;;;;;;;5105171;27;20122;-65
2023/05/21 14:36:32;;;;;;;30.13;22.92;;;;;;;;;;5105715;27;20072;-65